Time;durP1;ratioP1;P1;durP2;ratioP2;P2;SDS_P1;SDS_P2;PMS_P1;PMS_P2;Temp;Humidity;BMP_temperature;BMP_pressure;BME280_temperature;BME280_humidity;BME280_pressure;Samples;Min_cycle;Max_cycle;Signal;HPM_P1;HPM_P2
2023/09/28 00:02:22;;;;;;;9.47;6.47;;;;;;;13.34;100.00;98251.44;5098813;28;20234;-82
2023/09/28 00:04:49;;;;;;;9.90;6.50;;;;;;;13.28;100.00;98256.38;5100572;28;20229;-82
2023/09/28 00:07:17;;;;;;;10.47;6.83;;;;;;;13.26;100.00;98259.13;5100406;28;20207;-82
2023/09/28 00:09:42;;;;;;;8.80;6.80;;;;;;;13.30;100.00;98270.34;5100346;28;20672;-82
2023/09/28 00:12:09;;;;;;;9.60;6.77;;;;;;;13.44;100.00;98259.53;5098915;28;20248;-82
2023/09/28 00:14:34;;;;;;;8.30;6.97;;;;;;;13.50;100.00;98267.84;5098677;28;20577;-83
2023/09/28 00:17:03;;;;;;;9.37;6.73;;;;;;;13.53;100.00;98266.75;5099666;28;20222;-83
2023/09/28 00:19:29;;;;;;;8.20;6.20;;;;;;;13.56;100.00;98280.63;5099745;28;20210;-82
2023/09/28 00:21:56;;;;;;;8.40;6.73;;;;;;;13.58;100.00;98275.19;5098629;28;20265;-82
2023/09/28 00:24:23;;;;;;;7.43;5.53;;;;;;;13.57;100.00;98270.88;5097900;28;20213;-82
2023/09/28 00:26:51;;;;;;;7.50;5.93;;;;;;;13.58;100.00;98275.19;5102945;28;20591;-82
2023/09/28 00:29:18;;;;;;;8.47;6.00;;;;;;;13.56;100.00;98277.16;5102637;28;20205;-83
2023/09/28 00:31:44;;;;;;;8.93;6.23;;;;;;;13.63;100.00;98275.69;5101914;28;20286;-82
2023/09/28 00:34:10;;;;;;;9.33;6.20;;;;;;;13.68;100.00;98271.69;5101170;28;20217;-82
2023/09/28 00:36:37;;;;;;;7.83;6.50;;;;;;;13.65;100.00;98281.72;5101133;28;20229;-83
2023/09/28 00:39:04;;;;;;;8.20;6.27;;;;;;;13.67;100.00;98274.47;5098855;28;20206;-80
2023/09/28 00:41:33;;;;;;;7.70;6.10;;;;;;;13.67;100.00;98277.97;5098317;28;20240;-81
2023/09/28 00:44:00;;;;;;;8.13;6.10;;;;;;;13.65;100.00;98276.41;5098334;28;20216;-80
2023/09/28 00:46:32;;;;;;;7.60;5.87;;;;;;;13.67;100.00;98290.41;5098080;28;20296;-80
2023/09/28 00:49:03;;;;;;;8.57;6.20;;;;;;;13.67;100.00;98287.75;5098647;28;20195;-80
2023/09/28 00:51:31;;;;;;;7.87;6.30;;;;;;;13.70;100.00;98291.00;5097675;28;20313;-81
2023/09/28 00:54:00;;;;;;;9.13;6.43;;;;;;;13.71;100.00;98286.53;5097514;28;20232;-80
2023/09/28 00:56:27;;;;;;;10.17;6.83;;;;;;;13.68;100.00;98292.13;5096269;28;20202;-80
2023/09/28 00:58:56;;;;;;;7.67;6.10;;;;;;;13.66;100.00;98278.94;5096620;28;20248;-80
2023/09/28 01:01:25;;;;;;;7.70;6.47;;;;;;;13.62;100.00;98280.13;5096303;28;20245;-81
2023/09/28 01:03:51;;;;;;;8.07;6.03;;;;;;;13.68;100.00;98287.63;5096398;28;20448;-81
2023/09/28 01:06:18;;;;;;;8.20;6.37;;;;;;;13.71;100.00;98290.06;5096336;28;20209;-81
2023/09/28 01:08:43;;;;;;;8.63;6.33;;;;;;;13.69;100.00;98285.84;5098600;28;20213;-80
2023/09/28 01:11:10;;;;;;;7.07;5.53;;;;;;;13.61;100.00;98285.56;5116807;28;20230;-81
2023/09/28 01:13:38;;;;;;;8.30;6.20;;;;;;;13.56;100.00;98277.16;5117357;28;20220;-81
2023/09/28 01:16:06;;;;;;;8.77;6.10;;;;;;;13.54;100.00;98279.06;5115402;28;20238;-81
2023/09/28 01:18:32;;;;;;;9.03;6.50;;;;;;;13.53;100.00;98282.69;5102473;28;20228;-81
2023/09/28 01:20:59;;;;;;;7.17;6.13;;;;;;;13.52;100.00;98286.31;5101807;28;20241;-81
2023/09/28 01:23:26;;;;;;;8.33;6.10;;;;;;;13.51;100.00;98280.13;5102479;28;20232;-81
2023/09/28 01:25:53;;;;;;;7.60;5.83;;;;;;;13.52;100.00;98288.97;5101646;28;20228;-81
2023/09/28 01:28:19;;;;;;;7.50;5.70;;;;;;;13.49;100.00;98284.72;5101769;28;20216;-81
2023/09/28 01:30:45;;;;;;;7.20;6.03;;;;;;;13.52;100.00;98283.66;5100951;28;20225;-81
2023/09/28 01:33:11;;;;;;;7.37;5.93;;;;;;;13.59;100.00;98282.19;5100695;28;20203;-81
2023/09/28 01:35:38;;;;;;;8.53;6.47;;;;;;;13.59;100.00;98280.41;5101180;28;20217;-81
2023/09/28 01:38:13;;;;;;;8.33;6.60;;;;;;;13.65;100.00;98289.69;5100088;28;20226;-81
2023/09/28 01:40:41;;;;;;;11.07;7.17;;;;;;;13.65;100.00;98289.69;5100417;28;20239;-81
2023/09/28 01:43:07;;;;;;;8.77;6.50;;;;;;;13.64;100.00;98280.84;5100520;28;20208;-81
2023/09/28 01:45:34;;;;;;;7.63;6.30;;;;;;;13.66;100.00;98288.72;5100003;28;20213;-81
2023/09/28 01:47:59;;;;;;;8.53;6.33;;;;;;;13.70;100.00;98290.16;5099606;28;20270;-81
2023/09/28 01:50:26;;;;;;;8.77;6.47;;;;;;;13.69;100.00;98278.69;5099034;28;20210;-81
2023/09/28 01:52:51;;;;;;;7.47;5.80;;;;;;;13.70;100.00;98282.19;5099125;28;20617;-81
2023/09/28 01:55:18;;;;;;;7.73;6.20;;;;;;;13.74;100.00;98275.69;5098350;28;20228;-81
2023/09/28 01:57:45;;;;;;;7.60;6.80;;;;;;;13.72;100.00;98272.28;5099478;28;20651;-81
2023/09/28 02:00:14;;;;;;;8.67;6.23;;;;;;;13.73;100.00;98276.63;5098785;28;20217;-81
2023/09/28 02:02:40;;;;;;;7.13;5.67;;;;;;;13.76;100.00;98268.44;5094189;28;20225;-81
2023/09/28 02:05:07;;;;;;;9.50;6.33;;;;;;;13.71;100.00;98276.78;5094509;28;20212;-81
2023/09/28 02:07:34;;;;;;;7.20;5.60;;;;;;;13.72;100.00;98285.56;5094531;28;20639;-80
2023/09/28 02:10:00;;;;;;;8.00;5.80;;;;;;;13.73;100.00;98280.16;5099183;28;20245;-81
2023/09/28 02:12:27;;;;;;;6.93;5.63;;;;;;;13.72;100.00;98288.22;5100241;28;20226;-81
2023/09/28 02:14:55;;;;;;;9.57;6.73;;;;;;;13.76;100.00;98279.06;5100390;28;20232;-81
2023/09/28 02:17:21;;;;;;;8.07;6.00;;;;;;;13.71;100.00;98279.44;5099008;28;20240;-81
2023/09/28 02:19:48;;;;;;;7.57;6.33;;;;;;;13.73;100.00;98280.16;5098861;28;20290;-81
2023/09/28 02:22:14;;;;;;;6.17;5.30;;;;;;;13.74;100.00;98284.47;5097663;28;20229;-81
2023/09/28 02:24:40;;;;;;;7.00;6.03;;;;;;;13.76;100.00;98279.06;5098039;28;20258;-81
2023/09/28 02:27:06;;;;;;;7.47;5.80;;;;;;;13.80;100.00;98280.47;5097546;28;20213;-81
2023/09/28 02:29:32;;;;;;;9.33;6.00;;;;;;;13.75;100.00;98277.38;5097720;28;20209;-81
2023/09/28 02:31:59;;;;;;;7.20;5.60;;;;;;;13.75;100.00;98294.13;5097211;28;20614;-81
2023/09/28 02:34:26;;;;;;;6.13;5.47;;;;;;;13.73;100.00;98296.09;5097491;28;20211;-81
2023/09/28 02:36:52;;;;;;;7.20;5.53;;;;;;;13.75;100.00;98291.47;5097957;28;20233;-81
2023/09/28 02:39:19;;;;;;;10.33;6.13;;;;;;;13.76;100.00;98298.47;5098040;28;20226;-81
2023/09/28 02:41:44;;;;;;;7.40;5.57;;;;;;;13.72;100.00;98293.53;5097600;28;20226;-81
2023/09/28 02:44:10;;;;;;;7.03;5.53;;;;;;;13.73;100.00;98292.56;5097927;28;20219;-81
2023/09/28 02:46:36;;;;;;;5.70;4.73;;;;;;;13.69;100.00;98294.63;5096895;28;20217;-81
2023/09/28 02:49:06;;;;;;;7.13;5.63;;;;;;;13.70;100.00;98298.13;5096695;28;20213;-81
2023/09/28 02:51:31;;;;;;;7.07;5.20;;;;;;;13.77;100.00;98309.97;5096554;28;20230;-80
2023/09/28 02:53:58;;;;;;;7.40;5.23;;;;;;;13.74;100.00;98308.38;5096282;28;20357;-80
2023/09/28 02:56:24;;;;;;;8.27;5.67;;;;;;;13.73;100.00;98300.53;5096599;28;20285;-81
2023/09/28 02:58:51;;;;;;;8.00;5.90;;;;;;;13.73;100.00;98306.72;5096040;28;20230;-81
2023/09/28 03:01:21;;;;;;;6.47;5.50;;;;;;;13.70;100.00;98306.09;5095702;28;20256;-81
2023/09/28 03:03:47;;;;;;;7.93;5.50;;;;;;;13.66;100.00;98304.66;5095509;28;20821;-81
2023/09/28 03:06:14;;;;;;;7.20;5.47;;;;;;;13.65;100.00;98309.13;5095226;28;20309;-81
2023/09/28 03:08:41;;;;;;;7.57;5.20;;;;;;;13.68;100.00;98318.69;5094511;28;20202;-81
2023/09/28 03:11:06;;;;;;;8.53;6.10;;;;;;;13.74;100.00;98323.50;5093852;28;20319;-81
2023/09/28 03:13:33;;;;;;;7.67;5.70;;;;;;;13.71;100.00;98319.28;5095076;28;20247;-81
2023/09/28 03:15:58;;;;;;;5.87;5.13;;;;;;;13.72;100.00;98313.00;5094718;28;20330;-81
2023/09/28 03:18:25;;;;;;;7.57;5.53;;;;;;;13.70;100.00;98327.34;5094253;28;20231;-81
2023/09/28 03:20:53;;;;;;;7.73;5.53;;;;;;;13.71;100.00;98318.41;5093698;28;20236;-80
2023/09/28 03:23:21;;;;;;;8.77;5.43;;;;;;;13.72;100.00;98313.00;5094248;28;20210;-81
2023/09/28 03:25:47;;;;;;;7.53;5.33;;;;;;;13.72;100.00;98317.44;5094797;28;20220;-81
2023/09/28 03:28:14;;;;;;;5.97;4.97;;;;;;;13.72;100.00;98304.16;5095618;28;20210;-81
2023/09/28 03:30:40;;;;;;;9.80;6.07;;;;;;;13.76;100.00;98310.94;5110529;28;20193;-81
2023/09/28 03:33:06;;;;;;;6.27;5.13;;;;;;;13.79;100.00;98313.34;5111228;28;20328;-81
2023/09/28 03:35:32;;;;;;;8.73;5.50;;;;;;;13.82;100.00;98321.06;5112851;28;20213;-81
2023/09/28 03:37:59;;;;;;;7.77;5.63;;;;;;;13.82;100.00;98324.56;5102053;28;20260;-81
2023/09/28 03:40:33;;;;;;;6.90;5.43;;;;;;;13.82;100.00;98332.53;5099184;28;20300;-81
2023/09/28 03:43:00;;;;;;;6.33;5.20;;;;;;;13.77;100.00;98329.41;5099038;28;20210;-81
2023/09/28 03:45:27;;;;;;;7.10;5.53;;;;;;;13.77;100.00;98317.94;5098751;28;20211;-81
2023/09/28 03:47:54;;;;;;;6.10;4.97;;;;;;;13.78;100.00;98309.00;5098430;28;20224;-81
2023/09/28 03:50:22;;;;;;;6.93;5.27;;;;;;;13.77;100.00;98320.59;5097715;28;20216;-81
2023/09/28 03:52:48;;;;;;;7.20;5.77;;;;;;;13.75;100.00;98322.53;5097996;28;20242;-81
2023/09/28 03:55:20;;;;;;;8.40;5.37;;;;;;;13.77;100.00;98318.78;5098031;28;20210;-81
2023/09/28 03:57:48;;;;;;;6.73;4.90;;;;;;;13.73;100.00;98316.47;5097418;28;20251;-81
2023/09/28 04:00:17;;;;;;;6.87;5.50;;;;;;;13.77;100.00;98317.94;5101177;28;20212;-81
2023/09/28 04:02:45;;;;;;;5.30;4.63;;;;;;;13.78;100.00;98327.59;5100829;28;20229;-81
2023/09/28 04:05:12;;;;;;;7.27;5.70;;;;;;;13.76;100.00;98326.88;5101225;28;20208;-81
2023/09/28 04:07:40;;;;;;;7.90;5.47;;;;;;;13.75;100.00;98325.19;5101357;28;20209;-81
2023/09/28 04:10:08;;;;;;;9.17;6.30;;;;;;;13.77;100.00;98317.94;5101106;28;20220;-80
2023/09/28 04:12:34;;;;;;;6.80;5.27;;;;;;;13.76;100.00;98327.69;5101140;28;20302;-81
2023/09/28 04:15:02;;;;;;;8.00;5.23;;;;;;;13.73;100.00;98335.06;5101300;28;20215;-80
2023/09/28 04:17:29;;;;;;;7.37;5.43;;;;;;;13.75;100.00;98341.13;5100791;28;20253;-80
2023/09/28 04:19:55;;;;;;;7.43;5.03;;;;;;;13.76;100.00;98340.97;5101291;28;20225;-80
2023/09/28 04:22:22;;;;;;;6.60;5.30;;;;;;;13.75;100.00;98344.59;5101346;28;20224;-81
2023/09/28 04:24:48;;;;;;;6.43;5.43;;;;;;;13.76;100.00;98342.81;5101033;28;20245;-80
2023/09/28 04:27:15;;;;;;;6.93;5.20;;;;;;;13.78;100.00;98344.38;5100184;28;20205;-80
2023/09/28 04:29:41;;;;;;;7.13;5.53;;;;;;;13.74;100.00;98340.28;5101137;28;20203;-81
2023/09/28 04:32:09;;;;;;;6.33;5.57;;;;;;;13.78;100.00;98340.88;5098920;28;20606;-81
2023/09/28 04:34:36;;;;;;;6.43;5.07;;;;;;;13.71;100.00;98334.34;5100041;28;20206;-81
2023/09/28 04:37:04;;;;;;;7.57;5.87;;;;;;;13.68;100.00;98347.88;5099640;28;20216;-81
2023/09/28 04:39:30;;;;;;;7.47;5.97;;;;;;;13.64;100.00;98339.28;5099623;28;20208;-81
2023/09/28 04:41:58;;;;;;;6.73;5.37;;;;;;;13.62;100.00;98341.22;5099797;28;20240;-80
2023/09/28 04:44:24;;;;;;;9.57;6.20;;;;;;;13.61;100.00;98339.53;5104288;28;20221;-81
2023/09/28 04:46:51;;;;;;;6.53;5.67;;;;;;;13.64;100.00;98346.44;5101709;28;20209;-80
2023/09/28 04:49:19;;;;;;;7.70;5.73;;;;;;;13.64;100.00;98346.44;5100141;28;20201;-82
2023/09/28 04:51:46;;;;;;;6.10;4.93;;;;;;;13.63;100.00;98342.09;5099747;28;20703;-80
2023/09/28 04:54:13;;;;;;;7.43;6.40;;;;;;;13.65;100.00;98342.81;5099692;28;20659;-81
2023/09/28 04:56:39;;;;;;;7.40;5.70;;;;;;;13.64;100.00;98341.13;5100285;28;20221;-81
2023/09/28 04:59:06;;;;;;;7.50;5.40;;;;;;;13.62;100.00;98343.06;5100361;28;20722;-82
2023/09/28 05:01:32;;;;;;;8.47;5.60;;;;;;;13.62;100.00;98335.91;5099300;28;20241;-82
2023/09/28 05:03:59;;;;;;;6.67;5.03;;;;;;;13.60;100.00;98339.66;5099723;28;20204;-82
2023/09/28 05:06:27;;;;;;;8.00;5.67;;;;;;;13.56;100.00;98340.88;5099833;28;20209;-81
2023/09/28 05:08:53;;;;;;;8.37;5.67;;;;;;;13.50;100.00;98351.97;5099098;28;20201;-82
2023/09/28 05:11:20;;;;;;;8.20;6.17;;;;;;;13.48;100.00;98340.59;5098082;28;20226;-80
2023/09/28 05:13:47;;;;;;;8.13;5.87;;;;;;;13.46;100.00;98342.53;5098952;28;20213;-80
2023/09/28 05:16:13;;;;;;;8.10;5.30;;;;;;;13.46;100.00;98343.38;5099597;28;20221;-81
2023/09/28 05:18:40;;;;;;;6.53;5.30;;;;;;;13.45;100.00;98344.34;5099158;28;20236;-80
2023/09/28 05:21:07;;;;;;;7.30;5.30;;;;;;;13.47;100.00;98341.56;5098749;28;20301;-82
2023/09/28 05:23:34;;;;;;;7.10;5.10;;;;;;;13.52;100.00;98350.88;5099160;28;20611;-80
2023/09/28 05:26:01;;;;;;;5.33;4.73;;;;;;;13.56;100.00;98348.84;5098745;28;20503;-82
2023/09/28 05:28:28;;;;;;;7.67;5.50;;;;;;;13.66;100.00;98363.06;5098718;28;20272;-80
2023/09/28 05:30:54;;;;;;;8.20;5.43;;;;;;;13.68;100.00;98367.31;5098473;28;20228;-80
2023/09/28 05:33:21;;;;;;;7.83;5.70;;;;;;;13.72;100.00;98362.59;5099082;28;20237;-82
2023/09/28 05:35:47;;;;;;;8.03;5.43;;;;;;;13.73;100.00;98366.94;5098285;28;20216;-80
2023/09/28 05:38:14;;;;;;;7.17;5.53;;;;;;;13.74;100.00;98366.00;5098631;28;20579;-80
2023/09/28 05:40:42;;;;;;;7.00;4.97;;;;;;;13.75;100.00;98373.00;5100191;28;20206;-80
2023/09/28 05:43:08;;;;;;;6.93;5.23;;;;;;;13.80;100.00;98382.28;5100367;28;20646;-80
2023/09/28 05:45:35;;;;;;;7.77;5.37;;;;;;;13.78;100.00;98383.38;5099005;28;20632;-80
2023/09/28 05:48:01;;;;;;;7.67;5.60;;;;;;;13.78;100.00;98378.06;5098824;28;20203;-80
2023/09/28 05:50:28;;;;;;;8.50;5.23;;;;;;;13.77;100.00;98382.56;5109502;28;20208;-80
2023/09/28 05:52:56;;;;;;;7.07;5.00;;;;;;;13.75;100.00;98387.13;5116530;28;20619;-80
2023/09/28 05:55:24;;;;;;;9.60;5.70;;;;;;;13.69;100.00;98392.91;5115691;28;20207;-80
2023/09/28 05:57:52;;;;;;;9.93;5.27;;;;;;;13.68;100.00;98419.59;5107556;28;20317;-81
2023/09/28 06:00:19;;;;;;;8.17;5.90;;;;;;;13.72;100.00;98415.72;5102053;28;20617;-81
2023/09/28 06:02:46;;;;;;;6.90;5.70;;;;;;;13.74;100.00;98408.50;5100996;28;20234;-81
2023/09/28 06:05:12;;;;;;;6.13;5.00;;;;;;;13.78;100.00;98404.63;5101653;28;20213;-81
2023/09/28 06:07:39;;;;;;;7.80;5.67;;;;;;;13.88;100.00;98408.28;5105974;28;20272;-82
2023/09/28 06:10:08;;;;;;;7.47;5.33;;;;;;;13.87;100.00;98414.56;5108257;28;20624;-83
2023/09/28 06:12:34;;;;;;;6.50;5.30;;;;;;;13.96;100.00;98413.81;5103918;28;20240;-80
2023/09/28 06:15:02;;;;;;;11.27;6.27;;;;;;;13.97;100.00;98415.50;5098985;28;20604;-80
2023/09/28 06:17:29;;;;;;;10.30;5.40;;;;;;;14.06;100.00;98409.50;5098655;28;20244;-81
2023/09/28 06:19:55;;;;;;;8.73;5.83;;;;;;;14.05;100.00;98403.31;5100545;28;20230;-83
2023/09/28 06:22:22;;;;;;;9.33;6.77;;;;;;;14.10;100.00;98397.63;5101775;28;20235;-83
2023/09/28 06:24:49;;;;;;;6.43;5.00;;;;;;;14.12;100.00;98398.38;5100263;28;20214;-82
2023/09/28 06:27:15;;;;;;;7.10;5.17;;;;;;;14.18;100.00;98397.88;5096848;28;20220;-83
2023/09/28 06:29:41;;;;;;;6.00;5.17;;;;;;;14.23;100.00;98401.06;5096369;28;20206;-78
2023/09/28 06:32:10;;;;;;;7.77;5.57;;;;;;;14.30;100.00;98395.13;5096786;28;20237;-82
2023/09/28 06:34:36;;;;;;;7.47;5.73;;;;;;;14.43;100.00;98387.00;5098392;28;20213;-81
2023/09/28 06:37:03;;;;;;;7.03;5.67;;;;;;;14.52;100.00;98391.56;5098668;28;20229;-82
2023/09/28 06:39:30;;;;;;;6.20;5.03;;;;;;;14.59;100.00;98398.94;5098406;28;20290;-82
2023/09/28 06:41:56;;;;;;;8.10;5.17;;;;;;;14.67;100.00;98412.47;5098221;28;20231;-84
2023/09/28 06:44:23;;;;;;;7.27;4.93;;;;;;;14.78;100.00;98408.94;5097931;28;20679;-82
2023/09/28 06:46:49;;;;;;;7.03;4.97;;;;;;;14.86;100.00;98401.16;5096000;28;20206;-84
2023/09/28 06:49:17;;;;;;;9.30;5.30;;;;;;;14.99;100.00;98405.38;5093264;28;20582;-85
2023/09/28 06:51:43;;;;;;;7.73;5.07;;;;;;;15.07;100.00;98415.38;5092994;28;20237;-85
2023/09/28 06:54:11;;;;;;;7.83;5.60;;;;;;;15.17;100.00;98417.16;5093373;28;20580;-85
2023/09/28 06:56:37;;;;;;;7.43;5.17;;;;;;;15.13;100.00;98425.50;5093585;28;20275;-85
2023/09/28 06:59:04;;;;;;;6.90;5.10;;;;;;;15.13;100.00;98422.84;5092961;28;20230;-85
2023/09/28 07:01:31;;;;;;;6.33;4.77;;;;;;;15.07;100.00;98432.19;5092890;28;20279;-85
2023/09/28 07:03:57;;;;;;;6.00;4.70;;;;;;;15.04;100.00;98428.94;5091784;28;20217;-85
2023/09/28 07:06:25;;;;;;;12.37;8.77;;;;;;;15.14;100.00;98428.03;5093305;28;20277;-85
2023/09/28 07:08:52;;;;;;;9.03;6.03;;;;;;;15.25;100.00;98429.81;5093755;28;20199;-84
2023/09/28 07:11:19;;;;;;;6.23;5.10;;;;;;;15.49;100.00;98422.47;5093988;28;20272;-85
2023/09/28 07:13:46;;;;;;;6.83;5.47;;;;;;;15.83;100.00;98411.47;5096097;28;20212;-85
2023/09/28 07:16:12;;;;;;;6.40;4.90;;;;;;;16.12;100.00;98414.31;5095658;28;20202;-81
2023/09/28 07:18:39;;;;;;;8.05;5.32;;;;;;;16.37;100.00;98412.88;5094076;28;20451;-86
2023/09/28 07:21:05;;;;;;;6.33;5.33;;;;;;;16.66;100.00;98402.31;5095081;28;20238;-86
2023/09/28 07:23:34;;;;;;;6.07;4.70;;;;;;;16.90;97.66;98400.09;5101549;28;20536;-81
2023/09/28 07:26:00;;;;;;;6.60;4.83;;;;;;;17.07;96.20;98392.22;5100483;28;20214;-85
2023/09/28 07:28:28;;;;;;;6.17;4.97;;;;;;;17.15;94.43;98408.44;5096970;28;20213;-84
2023/09/28 07:30:55;;;;;;;5.97;4.73;;;;;;;17.17;92.12;98393.09;5093541;28;20226;-84
2023/09/28 07:33:21;;;;;;;5.63;4.37;;;;;;;17.22;91.62;98398.88;5095681;28;20207;-84
2023/09/28 07:35:48;;;;;;;5.27;4.13;;;;;;;17.18;91.73;98408.13;5096494;28;20210;-84
2023/09/28 07:38:15;;;;;;;5.40;4.40;;;;;;;17.19;92.47;98414.31;5097365;28;20234;-84
2023/09/28 07:40:43;;;;;;;6.13;4.43;;;;;;;17.20;93.02;98414.16;5100540;28;20203;-84
2023/09/28 07:43:09;;;;;;;6.10;4.47;;;;;;;17.21;92.01;98413.22;5102998;28;20207;-84
2023/09/28 07:45:36;;;;;;;4.67;4.20;;;;;;;17.22;91.82;98422.91;5097639;28;20210;-80
2023/09/28 07:48:03;;;;;;;7.23;4.73;;;;;;;17.27;89.96;98426.00;5095331;28;20213;-82
2023/09/28 07:50:30;;;;;;;5.03;3.93;;;;;;;17.29;88.12;98418.69;5097942;28;20206;-80
2023/09/28 07:52:56;;;;;;;6.07;4.13;;;;;;;17.31;87.86;98427.38;5098534;28;20230;-81
2023/09/28 07:55:23;;;;;;;5.20;4.10;;;;;;;17.39;86.89;98419.56;5096775;28;20580;-81
2023/09/28 07:57:51;;;;;;;6.33;4.20;;;;;;;17.43;86.00;98422.78;5100147;28;20214;-82
2023/09/28 08:00:18;;;;;;;5.27;4.00;;;;;;;17.51;84.10;98418.44;5099828;28;20236;-82
2023/09/28 08:02:45;;;;;;;6.60;4.30;;;;;;;17.62;84.79;98418.25;5098388;28;20652;-81
2023/09/28 08:05:12;;;;;;;5.30;4.10;;;;;;;17.74;84.55;98424.31;5098892;28;20210;-81
2023/09/28 08:07:39;;;;;;;4.73;3.70;;;;;;;17.79;82.99;98412.19;5098036;28;20207;-81
2023/09/28 08:10:09;;;;;;;5.37;3.83;;;;;;;17.98;82.19;98404.09;5100669;28;20206;-80
2023/09/28 08:12:36;;;;;;;3.83;3.43;;;;;;;18.07;79.25;98395.22;5091177;28;20231;-79
2023/09/28 08:15:04;;;;;;;4.50;3.70;;;;;;;18.20;78.39;98390.38;5093582;28;20271;-82
2023/09/28 08:17:33;;;;;;;4.67;3.87;;;;;;;18.41;77.52;98393.69;5092711;28;20211;-80
2023/09/28 08:19:59;;;;;;;5.53;3.97;;;;;;;18.59;76.04;98391.91;5083795;28;20238;-83
2023/09/28 08:22:26;;;;;;;7.07;3.67;;;;;;;18.66;76.25;98400.19;5077496;28;20270;-84
2023/09/28 08:24:52;;;;;;;5.07;3.67;;;;;;;18.68;75.39;98383.00;5075199;28;20277;-79
2023/09/28 08:27:19;;;;;;;5.07;3.63;;;;;;;18.74;75.66;98394.94;5082233;28;20205;-79
2023/09/28 08:29:46;;;;;;;5.30;3.90;;;;;;;18.80;75.11;98400.53;5079405;28;20200;-83
2023/09/28 08:32:14;;;;;;;5.00;3.67;;;;;;;18.90;74.98;98401.28;5075957;28;20329;-81
2023/09/28 08:34:40;;;;;;;4.50;3.67;;;;;;;19.02;73.88;98394.72;5075300;28;20214;-81
2023/09/28 08:37:08;;;;;;;5.27;3.30;;;;;;;19.12;73.11;98390.16;5074348;28;20567;-81
2023/09/28 08:39:36;;;;;;;4.87;3.87;;;;;;;19.15;73.77;98399.72;5074046;28;20289;-81
2023/09/28 08:42:04;;;;;;;5.37;3.90;;;;;;;19.21;72.06;98394.63;5074644;28;20232;-82
2023/09/28 08:44:32;;;;;;;4.00;3.20;;;;;;;19.29;72.30;98396.53;5075440;28;20214;-81
2023/09/28 08:47:00;;;;;;;5.40;3.67;;;;;;;19.40;72.10;98405.19;5076529;28;20207;-85
2023/09/28 08:49:29;;;;;;;6.03;3.70;;;;;;;19.48;70.34;98388.31;5078407;28;20261;-87
2023/09/28 08:51:56;;;;;;;5.67;3.77;;;;;;;19.64;69.32;98388.47;5078130;28;20258;-87
2023/09/28 08:54:23;;;;;;;5.60;3.47;;;;;;;19.76;69.53;98396.09;5077654;28;20203;-86
2023/09/28 08:56:52;;;;;;;3.63;3.33;;;;;;;19.94;67.76;98394.19;5076224;28;20199;-87
2023/09/28 08:59:20;;;;;;;4.25;3.45;;;;;;;20.05;69.21;98390.44;5073747;28;20472;-82
2023/09/28 09:01:47;;;;;;;5.17;3.50;;;;;;;20.17;68.96;98395.38;5077156;28;20234;-80
2023/09/28 09:04:14;;;;;;;5.50;3.40;;;;;;;20.29;68.21;98390.59;5079318;28;20282;-84
2023/09/28 09:06:43;;;;;;;5.23;3.57;;;;;;;20.34;67.92;98397.16;5078395;28;20211;-82
2023/09/28 09:09:15;;;;;;;6.00;3.83;;;;;;;20.44;67.33;98376.41;5079918;28;20249;-80
2023/09/28 09:11:50;;;;;;;3.60;3.00;;;;;;;20.60;66.49;98381.81;5079238;28;20321;-85
2023/09/28 09:14:16;;;;;;;4.20;3.53;;;;;;;20.64;66.33;98382.34;5079371;28;20222;-85
2023/09/28 09:16:43;;;;;;;4.83;3.60;;;;;;;20.67;64.57;98366.72;5078980;28;20207;-85
2023/09/28 09:19:13;;;;;;;3.70;3.30;;;;;;;20.73;64.78;98376.81;5079756;28;20254;-85
2023/09/28 09:21:44;;;;;;;5.40;3.50;;;;;;;20.84;64.41;98373.84;5079143;28;20233;-85
2023/09/28 09:24:13;;;;;;;4.63;3.40;;;;;;;20.95;63.44;98373.56;5079709;28;20303;-85
2023/09/28 09:26:41;;;;;;;3.80;3.10;;;;;;;21.03;63.83;98372.75;5079508;28;20310;-85
2023/09/28 09:29:08;;;;;;;4.47;3.40;;;;;;;21.07;63.28;98374.94;5080241;28;20199;-85
2023/09/28 09:31:38;;;;;;;3.77;3.03;;;;;;;21.07;63.19;98374.94;5080169;28;20238;-85
2023/09/28 09:34:05;;;;;;;4.30;3.00;;;;;;;21.18;62.48;98381.84;5079576;28;20606;-85
2023/09/28 09:36:32;;;;;;;3.50;3.17;;;;;;;21.19;62.44;98373.63;5080302;28;20206;-86
2023/09/28 09:39:00;;;;;;;3.20;2.80;;;;;;;21.28;62.03;98375.28;5081173;28;20238;-86
2023/09/28 09:41:27;;;;;;;5.43;3.27;;;;;;;21.31;61.88;98372.28;5080040;28;20998;-86
2023/09/28 09:43:54;;;;;;;4.30;3.43;;;;;;;21.38;61.42;98367.91;5079431;28;20211;-84
2023/09/28 09:46:21;;;;;;;5.53;3.40;;;;;;;21.39;61.90;98369.59;5076862;28;20204;-86
2023/09/28 09:48:48;;;;;;;4.60;3.33;;;;;;;21.56;61.07;98365.03;5078311;28;20203;-83
2023/09/28 09:51:17;;;;;;;4.73;3.60;;;;;;;21.66;61.06;98366.56;5077316;28;20227;-85
2023/09/28 09:53:45;;;;;;;6.43;3.60;;;;;;;21.71;59.35;98356.16;5077934;28;20211;-84
2023/09/28 09:56:15;;;;;;;4.80;3.27;;;;;;;21.72;59.58;98360.56;5076714;28;20200;-84
2023/09/28 09:58:42;;;;;;;5.00;3.40;;;;;;;21.87;58.17;98358.84;5078168;28;20207;-85
2023/09/28 10:01:12;;;;;;;4.40;3.33;;;;;;;21.97;58.35;98359.50;5077637;28;20228;-85
2023/09/28 10:03:42;;;;;;;5.77;3.87;;;;;;;22.21;56.80;98359.44;5078639;28;20214;-84
2023/09/28 10:06:11;;;;;;;3.97;2.97;;;;;;;22.28;55.58;98346.94;5076671;28;20233;-85
2023/09/28 10:08:39;;;;;;;4.57;3.43;;;;;;;22.33;55.85;98349.13;5078159;28;20211;-84
2023/09/28 10:11:06;;;;;;;4.13;2.80;;;;;;;22.44;55.46;98341.50;5077668;28;20227;-84
2023/09/28 10:13:34;;;;;;;4.17;3.03;;;;;;;22.50;54.50;98337.31;5077393;28;20583;-83
2023/09/28 10:16:02;;;;;;;5.17;3.00;;;;;;;22.67;53.78;98331.66;5077506;28;20207;-85
2023/09/28 10:18:30;;;;;;;4.47;3.20;;;;;;;22.75;53.94;98339.69;5077542;28;20215;-85
2023/09/28 10:20:58;;;;;;;3.87;3.10;;;;;;;22.79;53.46;98330.22;5077267;28;20604;-86
2023/09/28 10:23:27;;;;;;;3.80;3.00;;;;;;;22.84;53.19;98338.63;5076920;28;20678;-84
2023/09/28 10:25:55;;;;;;;4.30;3.38;;;;;;;22.94;52.77;98339.25;5075829;28;20885;-83
2023/09/28 10:28:21;;;;;;;3.33;2.83;;;;;;;22.95;52.48;98340.94;5076353;28;20218;-84
2023/09/28 10:31:02;;;;;;;6.50;3.30;;;;;;;23.17;51.42;98355.47;5075556;28;20219;-84
2023/09/28 10:33:30;;;;;;;3.88;3.03;;;;;;;23.08;51.89;98360.03;5077399;28;20423;-84
2023/09/28 10:36:12;;;;;;;4.50;3.03;;;;;;;23.20;50.28;98347.84;5077486;28;20211;-83
2023/09/28 10:38:40;;;;;;;3.20;2.70;;;;;;;23.16;50.37;98353.75;5080606;28;20207;-84
2023/09/28 10:41:07;;;;;;;4.17;3.20;;;;;;;23.18;50.15;98341.81;5080949;28;20235;-83
2023/09/28 10:43:36;;;;;;;3.80;2.80;;;;;;;23.21;50.26;98346.84;5080280;28;20207;-84
2023/09/28 10:46:04;;;;;;;4.07;2.90;;;;;;;23.37;50.79;98346.72;5078835;28;20203;-84
2023/09/28 10:48:39;;;;;;;4.00;2.97;;;;;;;23.46;50.97;98344.81;5077268;28;20260;-84
2023/09/28 10:51:09;;;;;;;3.67;2.93;;;;;;;23.49;51.72;98350.66;5077179;28;20227;-83
2023/09/28 10:53:36;;;;;;;3.33;2.80;;;;;;;23.49;51.40;98350.66;5077248;28;20314;-84
2023/09/28 10:56:04;;;;;;;4.17;2.80;;;;;;;23.56;52.14;98358.88;5077295;28;20203;-83
2023/09/28 10:58:31;;;;;;;5.00;3.17;;;;;;;23.71;50.95;98349.78;5077230;28;20207;-84
2023/09/28 11:00:58;;;;;;;4.67;3.43;;;;;;;23.88;49.98;98337.84;5076476;28;20235;-83
2023/09/28 11:03:27;;;;;;;2.93;2.60;;;;;;;23.93;49.96;98324.63;5076322;28;20219;-83
2023/09/28 11:05:53;;;;;;;3.07;2.70;;;;;;;23.96;49.25;98326.13;5077999;28;20211;-84
2023/09/28 11:08:23;;;;;;;2.67;2.47;;;;;;;23.99;49.33;98341.94;5077223;28;20211;-84
2023/09/28 11:10:49;;;;;;;3.63;2.90;;;;;;;24.01;48.87;98342.63;5076499;28;20364;-84
2023/09/28 11:13:16;;;;;;;3.13;2.70;;;;;;;24.06;49.10;98343.72;5076647;28;20218;-84
2023/09/28 11:15:43;;;;;;;3.47;2.80;;;;;;;24.12;48.52;98347.53;5076710;28;20302;-82
2023/09/28 11:18:10;;;;;;;4.30;3.30;;;;;;;24.09;48.68;98343.34;5076138;28;20207;-84
2023/09/28 11:20:37;;;;;;;3.90;2.63;;;;;;;24.22;46.12;98331.91;5077137;28;20231;-83
2023/09/28 11:23:04;;;;;;;4.00;2.60;;;;;;;24.32;45.99;98337.88;5078108;28;20208;-84
2023/09/28 11:25:32;;;;;;;4.27;2.80;;;;;;;24.20;46.69;98337.50;5078826;28;20214;-84
2023/09/28 11:27:59;;;;;;;3.13;2.60;;;;;;;24.25;46.14;98337.78;5078278;28;20265;-84